Time,TemperatureF,DewpointF,PressureIn,WindDirection,WindDirectionDegrees,WindSpeedMPH,WindSpeedGustMPH,Humidity,HourlyPrecipIn,Conditions,Clouds,dailyrainin,SolarRadiationWatts/m^2,SoftwareType,DateUTC
2013-03-19 00:03:00,69.0,65.0,-100.00,SSW,197,5.0,-999.0,88,0.00,,,-99.99,0.600000,,2013-03-19 04:03:00,
2013-03-19 00:13:00,69.0,65.0,-100.00,SSW,208,4.0,-999.0,88,0.00,,,-99.99,0.600000,,2013-03-19 04:13:00,
2013-03-19 00:23:00,69.0,65.0,-100.00,SSW,208,4.0,-999.0,88,0.00,,,-99.99,0.600000,,2013-03-19 04:23:00,
2013-03-19 00:33:00,68.0,65.0,-100.00,SW,229,3.0,-999.0,89,0.00,,,-99.99,0.600000,,2013-03-19 04:33:00,
2013-03-19 00:43:00,68.0,65.0,-100.00,WNW,289,3.0,-999.0,90,0.00,,,-99.99,0.600000,,2013-03-19 04:43:00,
2013-03-19 00:53:00,68.0,65.0,-100.00,WNW,289,3.0,-999.0,90,0.00,,,-99.99,0.600000,,2013-03-19 04:53:00,
2013-03-19 01:02:00,67.0,64.0,-100.00,NW,323,2.0,-999.0,91,0.00,,,-99.99,0.600000,,2013-03-19 05:02:00,
2013-03-19 01:12:00,66.0,64.0,-100.00,NNW,335,3.0,-999.0,93,0.00,,,-99.99,0.600000,,2013-03-19 05:12:00,
2013-03-19 01:22:00,66.0,64.0,-100.00,NNW,335,3.0,-999.0,93,0.00,,,-99.99,0.600000,,2013-03-19 05:22:00,
2013-03-19 01:32:00,66.0,64.0,-100.00,NNE,18,1.0,-999.0,93,0.00,,,-99.99,0.600000,,2013-03-19 05:32:00,
2013-03-19 01:43:00,65.0,63.0,-100.00,SW,216,0.0,-999.0,94,0.00,,,-99.99,0.600000,,2013-03-19 05:43:00,
2013-03-19 01:52:00,65.0,63.0,-100.00,SW,216,0.0,-999.0,94,0.00,,,-99.99,0.600000,,2013-03-19 05:52:00,
2013-03-19 02:02:00,64.0,63.0,-100.00,NW,314,2.0,-999.0,95,0.00,,,-99.99,0.600000,,2013-03-19 06:02:00,
2013-03-19 02:12:00,64.0,63.0,-100.00,North,356,5.0,-999.0,96,0.00,,,-99.99,0.600000,,2013-03-19 06:12:00,
2013-03-19 02:22:00,64.0,63.0,-100.00,North,356,5.0,-999.0,96,0.00,,,-99.99,0.600000,,2013-03-19 06:22:00,
2013-03-19 02:32:00,65.0,64.0,-100.00,North,354,6.0,-999.0,96,0.00,,,-99.99,0.600000,,2013-03-19 06:32:00,
2013-03-19 02:42:00,65.0,64.0,-100.00,North,357,5.0,-999.0,96,0.00,,,-99.99,0.600000,,2013-03-19 06:42:00,
2013-03-19 02:52:00,65.0,64.0,-100.00,North,357,5.0,-999.0,96,0.00,,,-99.99,0.600000,,2013-03-19 06:52:00,
2013-03-19 03:02:00,65.0,64.0,-100.00,North,7,3.0,-999.0,96,0.00,,,-99.99,0.600000,,2013-03-19 07:02:00,
2013-03-19 03:12:00,65.0,63.0,-100.00,NNE,17,3.0,-999.0,96,0.00,,,-99.99,0.600000,,2013-03-19 07:12:00,
2013-03-19 03:22:00,65.0,63.0,-100.00,NNE,17,3.0,-999.0,96,0.00,,,-99.99,0.600000,,2013-03-19 07:22:00,
2013-03-19 03:32:00,64.0,63.0,-100.00,NNE,28,2.0,-999.0,96,0.00,,,-99.99,0.600000,,2013-03-19 07:32:00,
2013-03-19 03:42:00,63.0,62.0,-100.00,NE,42,1.0,-999.0,96,0.00,,,-99.99,0.600000,,2013-03-19 07:42:00,
2013-03-19 03:53:00,63.0,62.0,-100.00,NE,42,1.0,-999.0,96,0.00,,,-99.99,0.600000,,2013-03-19 07:53:00,
2013-03-19 04:03:00,63.0,62.0,-100.00,NW,325,1.0,-999.0,97,0.00,,,-99.99,0.600000,,2013-03-19 08:03:00,
2013-03-19 04:12:00,62.0,61.0,-100.00,NNW,346,1.0,-999.0,97,0.00,,,-99.99,0.500000,,2013-03-19 08:12:00,
2013-03-19 04:22:00,62.0,61.0,-100.00,NNW,346,1.0,-999.0,97,0.00,,,-99.99,0.500000,,2013-03-19 08:22:00,
2013-03-19 04:32:00,61.0,61.0,-100.00,SW,236,1.0,-999.0,97,0.00,,,-99.99,0.500000,,2013-03-19 08:32:00,
2013-03-19 04:42:00,61.0,60.0,-100.00,SE,126,1.0,-999.0,98,0.00,,,-99.99,0.500000,,2013-03-19 08:42:00,
2013-03-19 04:52:00,61.0,60.0,-100.00,SE,126,1.0,-999.0,98,0.00,,,-99.99,0.500000,,2013-03-19 08:52:00,
2013-03-19 05:02:00,61.0,61.0,-100.00,ENE,78,4.0,-999.0,98,0.00,,,-99.99,0.500000,,2013-03-19 09:02:00,
2013-03-19 05:12:00,62.0,62.0,-100.00,ESE,105,3.0,-999.0,98,0.00,,,-99.99,0.500000,,2013-03-19 09:12:00,
2013-03-19 05:22:00,62.0,62.0,-100.00,ESE,105,3.0,-999.0,98,0.00,,,-99.99,0.500000,,2013-03-19 09:22:00,
2013-03-19 05:32:00,62.0,61.0,-100.00,East,91,2.0,-999.0,98,0.00,,,-99.99,0.500000,,2013-03-19 09:32:00,
2013-03-19 05:43:00,62.0,61.0,-100.00,NE,39,3.0,-999.0,98,0.00,,,-99.99,0.500000,,2013-03-19 09:43:00,
2013-03-19 05:53:00,62.0,61.0,-100.00,NE,39,3.0,-999.0,98,0.00,,,-99.99,0.500000,,2013-03-19 09:53:00,
2013-03-19 06:03:00,62.0,61.0,-100.00,NE,39,3.0,-999.0,98,0.00,,,-99.99,0.500000,,2013-03-19 10:03:00,
2013-03-19 06:13:00,62.0,62.0,-100.00,NNE,31,3.0,-999.0,99,0.00,,,-99.99,0.600000,,2013-03-19 10:13:00,
2013-03-19 06:23:00,62.0,62.0,-100.00,NNE,31,3.0,-999.0,99,0.00,,,-99.99,0.600000,,2013-03-19 10:23:00,
2013-03-19 06:32:00,62.0,62.0,-100.00,NE,46,2.0,-999.0,99,0.00,,,-99.99,0.600000,,2013-03-19 10:32:00,
2013-03-19 06:42:00,62.0,62.0,-100.00,ESE,123,2.0,-999.0,99,0.00,,,-99.99,0.600000,,2013-03-19 10:42:00,
2013-03-19 06:53:00,62.0,62.0,-100.00,ESE,123,2.0,-999.0,99,0.00,,,-99.99,0.600000,,2013-03-19 10:53:00,
2013-03-19 07:02:00,63.0,63.0,-100.00,NNE,32,2.0,-999.0,99,0.00,,,-99.99,0.600000,,2013-03-19 11:02:00,
2013-03-19 07:12:00,64.0,64.0,-100.00,NNE,20,4.0,-999.0,99,0.00,,,-99.99,0.700000,,2013-03-19 11:12:00,
2013-03-19 07:22:00,64.0,64.0,-100.00,NNE,20,4.0,-999.0,99,0.00,,,-99.99,0.700000,,2013-03-19 11:22:00,
2013-03-19 07:32:00,64.0,64.0,-100.00,NE,37,4.0,-999.0,99,0.00,,,-99.99,0.700000,,2013-03-19 11:32:00,
2013-03-19 07:43:00,64.0,64.0,-100.00,East,88,3.0,-999.0,99,0.00,,,-99.99,1.100000,,2013-03-19 11:43:00,
2013-03-19 07:53:00,64.0,64.0,-100.00,East,88,3.0,-999.0,99,0.00,,,-99.99,1.100000,,2013-03-19 11:53:00,
2013-03-19 08:02:00,64.0,64.0,-100.00,SSE,147,5.0,-999.0,99,0.00,,,-99.99,2.700000,,2013-03-19 12:02:00,
2013-03-19 08:12:00,64.0,64.0,-100.00,SSE,159,5.0,-999.0,99,0.00,,,-99.99,5.800000,,2013-03-19 12:12:00,
2013-03-19 08:22:00,64.0,64.0,-100.00,SSE,159,5.0,-999.0,99,0.00,,,-99.99,5.800000,,2013-03-19 12:22:00,
2013-03-19 08:33:00,64.0,64.0,-100.00,SSE,148,6.0,-999.0,99,0.00,,,-99.99,7.800000,,2013-03-19 12:33:00,
2013-03-19 08:42:00,64.0,64.0,-100.00,SSE,161,3.0,-999.0,99,0.00,,,-99.99,39.700001,,2013-03-19 12:42:00,
2013-03-19 08:52:00,64.0,64.0,-100.00,SSE,161,3.0,-999.0,99,0.00,,,-99.99,39.700001,,2013-03-19 12:52:00,
2013-03-19 09:02:00,65.0,65.0,-100.00,SSE,159,2.0,-999.0,99,0.00,,,-99.99,148.600006,,2013-03-19 13:02:00,
2013-03-19 09:12:00,65.0,65.0,-100.00,SSE,159,2.0,-999.0,99,0.00,,,-99.99,148.600006,,2013-03-19 13:12:00,
2013-03-19 09:22:00,65.0,65.0,-100.00,North,360,4.0,-999.0,98,0.00,,,-99.99,149.699997,,2013-03-19 13:22:00,
2013-03-19 09:32:00,65.0,65.0,-100.00,North,2,6.0,-999.0,98,0.00,,,-99.99,101.000000,,2013-03-19 13:32:00,
2013-03-19 09:42:00,66.0,65.0,-100.00,NNE,17,6.0,-999.0,97,0.00,,,-99.99,162.899994,,2013-03-19 13:42:00,
2013-03-19 09:53:00,66.0,65.0,-100.00,NNE,17,6.0,-999.0,97,0.00,,,-99.99,162.899994,,2013-03-19 13:53:00,
2013-03-19 10:02:00,67.0,66.0,-100.00,ENE,73,6.0,-999.0,95,0.00,,,-99.99,295.200012,,2013-03-19 14:02:00,
2013-03-19 10:12:00,68.0,65.0,-100.00,East,88,8.0,-999.0,89,0.00,,,-99.99,416.899994,,2013-03-19 14:12:00,
2013-03-19 10:22:00,68.0,65.0,-100.00,East,88,8.0,-999.0,89,0.00,,,-99.99,416.899994,,2013-03-19 14:22:00,
2013-03-19 10:32:00,70.0,65.0,-100.00,ENE,76,7.0,-999.0,84,0.00,,,-99.99,508.600006,,2013-03-19 14:32:00,
2013-03-19 10:42:00,70.0,65.0,-100.00,East,91,6.0,-999.0,82,0.00,,,-99.99,376.100006,,2013-03-19 14:42:00,
2013-03-19 10:52:00,70.0,65.0,-100.00,East,91,6.0,-999.0,82,0.00,,,-99.99,376.100006,,2013-03-19 14:52:00,
2013-03-19 11:02:00,71.0,64.0,-100.00,East,91,7.0,-999.0,78,0.00,,,-99.99,502.799988,,2013-03-19 15:02:00,
2013-03-19 11:12:00,72.0,64.0,-100.00,ESE,116,5.0,-999.0,76,0.00,,,-99.99,597.799988,,2013-03-19 15:12:00,
2013-03-19 11:22:00,72.0,64.0,-100.00,ESE,116,5.0,-999.0,76,0.00,,,-99.99,597.799988,,2013-03-19 15:22:00,
2013-03-19 11:34:00,74.0,64.0,-100.00,SE,140,5.0,-999.0,73,0.00,,,-99.99,639.299988,,2013-03-19 15:34:00,
2013-03-19 11:44:00,75.0,64.0,-100.00,South,179,4.0,-999.0,69,0.00,,,-99.99,698.400024,,2013-03-19 15:44:00,
2013-03-19 11:53:00,75.0,64.0,-100.00,South,179,4.0,-999.0,69,0.00,,,-99.99,698.400024,,2013-03-19 15:53:00,
2013-03-19 12:04:00,75.0,64.0,-100.00,SSW,195,3.0,-999.0,68,0.00,,,-99.99,695.200012,,2013-03-19 16:04:00,
2013-03-19 12:13:00,77.0,65.0,-100.00,SE,132,3.0,-999.0,65,0.00,,,-99.99,745.000000,,2013-03-19 16:13:00,
2013-03-19 12:24:00,77.0,65.0,-100.00,SE,132,3.0,-999.0,65,0.00,,,-99.99,745.000000,,2013-03-19 16:24:00,
2013-03-19 12:34:00,77.0,64.0,-100.00,SSW,205,4.0,-999.0,63,0.00,,,-99.99,749.000000,,2013-03-19 16:34:00,
2013-03-19 12:44:00,78.0,64.0,-100.00,SW,226,4.0,-999.0,62,0.00,,,-99.99,763.000000,,2013-03-19 16:44:00,
2013-03-19 12:54:00,78.0,64.0,-100.00,SW,226,4.0,-999.0,62,0.00,,,-99.99,763.000000,,2013-03-19 16:54:00,
2013-03-19 13:03:00,78.0,63.0,-100.00,SSE,153,5.0,-999.0,59,0.00,,,-99.99,780.000000,,2013-03-19 17:03:00,
2013-03-19 13:14:00,80.0,64.0,-100.00,SSE,155,4.0,-999.0,58,0.00,,,-99.99,792.000000,,2013-03-19 17:14:00,
2013-03-19 13:23:00,80.0,64.0,-100.00,SSE,155,4.0,-999.0,58,0.00,,,-99.99,792.000000,,2013-03-19 17:23:00,
2013-03-19 13:34:00,80.0,64.0,-100.00,SSE,155,4.0,-999.0,58,0.00,,,-99.99,792.000000,,2013-03-19 17:34:00,
2013-03-19 13:44:00,81.0,62.0,-100.00,South,179,4.0,-999.0,52,0.00,,,-99.99,826.000000,,2013-03-19 17:44:00,
2013-03-19 13:53:00,81.0,62.0,-100.00,South,179,4.0,-999.0,52,0.00,,,-99.99,826.000000,,2013-03-19 17:53:00,
2013-03-19 14:03:00,82.0,61.0,-100.00,SSW,206,5.0,-999.0,50,0.00,,,-99.99,776.000000,,2013-03-19 18:03:00,
2013-03-19 14:14:00,83.0,61.0,-100.00,SSE,167,5.0,-999.0,48,0.00,,,-99.99,759.000000,,2013-03-19 18:14:00,
2013-03-19 14:23:00,83.0,61.0,-100.00,SSE,167,5.0,-999.0,48,0.00,,,-99.99,759.000000,,2013-03-19 18:23:00,
2013-03-19 14:33:00,83.0,60.0,-100.00,East,99,4.0,-999.0,45,0.00,,,-99.99,778.000000,,2013-03-19 18:33:00,
2013-03-19 14:43:00,84.0,60.0,-100.00,SE,140,5.0,-999.0,44,0.00,,,-99.99,782.000000,,2013-03-19 18:43:00,
2013-03-19 14:53:00,84.0,60.0,-100.00,SE,140,5.0,-999.0,44,0.00,,,-99.99,782.000000,,2013-03-19 18:53:00,
2013-03-19 15:02:00,84.0,59.0,-100.00,SSW,209,2.0,-999.0,43,0.00,,,-99.99,621.599976,,2013-03-19 19:02:00,
2013-03-19 15:12:00,84.0,59.0,-100.00,NNW,332,3.0,-999.0,42,0.00,,,-99.99,573.500000,,2013-03-19 19:12:00,
2013-03-19 15:22:00,84.0,59.0,-100.00,NNW,332,3.0,-999.0,42,0.00,,,-99.99,573.500000,,2013-03-19 19:22:00,
2013-03-19 15:33:00,84.0,60.0,-100.00,North,352,5.0,-999.0,44,0.00,,,-99.99,377.899994,,2013-03-19 19:33:00,
2013-03-19 15:43:00,84.0,60.0,-100.00,NNW,331,4.0,-999.0,44,0.00,,,-99.99,452.299988,,2013-03-19 19:43:00,
2013-03-19 15:53:00,84.0,60.0,-100.00,NNW,331,4.0,-999.0,44,0.00,,,-99.99,452.299988,,2013-03-19 19:53:00,
2013-03-19 16:03:00,85.0,60.0,-100.00,NW,326,6.0,-999.0,43,0.00,,,-99.99,553.200012,,2013-03-19 20:03:00,
2013-03-19 16:12:00,84.0,59.0,-100.00,North,352,6.0,-999.0,43,0.00,,,-99.99,364.000000,,2013-03-19 20:12:00,
2013-03-19 16:22:00,84.0,59.0,-100.00,North,352,6.0,-999.0,43,0.00,,,-99.99,364.000000,,2013-03-19 20:22:00,
2013-03-19 16:32:00,85.0,59.0,-100.00,North,358,5.0,-999.0,41,0.00,,,-99.99,613.000000,,2013-03-19 20:32:00,
2013-03-19 16:43:00,86.0,60.0,-100.00,WNW,296,5.0,-999.0,41,0.00,,,-99.99,578.299988,,2013-03-19 20:43:00,
2013-03-19 16:53:00,86.0,60.0,-100.00,WNW,296,5.0,-999.0,41,0.00,,,-99.99,578.299988,,2013-03-19 20:53:00,
2013-03-19 17:02:00,84.0,60.0,-100.00,WNW,286,5.0,-999.0,44,0.00,,,-99.99,209.600006,,2013-03-19 21:02:00,
2013-03-19 17:12:00,84.0,60.0,-100.00,NNW,327,5.0,-999.0,45,0.00,,,-99.99,175.600006,,2013-03-19 21:12:00,
2013-03-19 17:23:00,84.0,60.0,-100.00,NNW,327,5.0,-999.0,45,0.00,,,-99.99,175.600006,,2013-03-19 21:23:00,
2013-03-19 17:34:00,84.0,60.0,-100.00,NNW,327,5.0,-999.0,45,0.00,,,-99.99,175.600006,,2013-03-19 21:34:00,
2013-03-19 17:43:00,83.0,61.0,-100.00,North,359,6.0,-999.0,46,0.00,,,-99.99,187.899994,,2013-03-19 21:43:00,
2013-03-19 17:53:00,83.0,61.0,-100.00,North,359,6.0,-999.0,46,0.00,,,-99.99,187.899994,,2013-03-19 21:53:00,
2013-03-19 18:03:00,83.0,61.0,-100.00,NNE,12,5.0,-999.0,46,0.00,,,-99.99,221.199997,,2013-03-19 22:03:00,
2013-03-19 18:13:00,84.0,61.0,-100.00,North,8,4.0,-999.0,45,0.00,,,-99.99,274.299988,,2013-03-19 22:13:00,
2013-03-19 18:23:00,84.0,61.0,-100.00,North,8,4.0,-999.0,45,0.00,,,-99.99,274.299988,,2013-03-19 22:23:00,
2013-03-19 18:33:00,85.0,61.0,-100.00,North,1,5.0,-999.0,44,0.00,,,-99.99,250.600006,,2013-03-19 22:33:00,
2013-03-19 18:43:00,83.0,61.0,-100.00,North,353,6.0,-999.0,46,0.00,,,-99.99,133.500000,,2013-03-19 22:43:00,
2013-03-19 18:53:00,83.0,61.0,-100.00,North,353,6.0,-999.0,46,0.00,,,-99.99,133.500000,,2013-03-19 22:53:00,
2013-03-19 19:03:00,83.0,62.0,-100.00,North,8,6.0,-999.0,48,0.00,,,-99.99,154.399994,,2013-03-19 23:03:00,
2013-03-19 19:12:00,83.0,62.0,-100.00,North,3,6.0,-999.0,49,0.00,,,-99.99,100.099998,,2013-03-19 23:12:00,
2013-03-19 19:22:00,83.0,62.0,-100.00,North,3,6.0,-999.0,49,0.00,,,-99.99,100.099998,,2013-03-19 23:22:00,
2013-03-19 19:32:00,82.0,62.0,-100.00,North,6,5.0,-999.0,51,0.00,,,-99.99,53.900002,,2013-03-19 23:32:00,
2013-03-19 19:43:00,80.0,62.0,-100.00,NNE,12,3.0,-999.0,53,0.00,,,-99.99,21.100000,,2013-03-19 23:43:00,
2013-03-19 19:53:00,80.0,62.0,-100.00,NNE,12,3.0,-999.0,53,0.00,,,-99.99,21.100000,,2013-03-19 23:53:00,
2013-03-19 20:03:00,79.0,62.0,-100.00,NE,34,2.0,-999.0,56,0.00,,,-99.99,5.500000,,2013-03-20 00:03:00,
2013-03-19 20:13:00,76.0,62.0,-100.00,NNW,338,3.0,-999.0,61,0.00,,,-99.99,1.200000,,2013-03-20 00:13:00,
2013-03-19 20:22:00,76.0,62.0,-100.00,NNW,338,3.0,-999.0,61,0.00,,,-99.99,1.200000,,2013-03-20 00:22:00,
2013-03-19 20:33:00,76.0,61.0,-100.00,NW,317,4.0,-999.0,61,0.00,,,-99.99,0.800000,,2013-03-20 00:33:00,
2013-03-19 20:42:00,76.0,61.0,-100.00,NW,317,4.0,-999.0,61,0.00,,,-99.99,0.800000,,2013-03-20 00:42:00,
2013-03-19 20:52:00,74.0,61.0,-100.00,WNW,303,4.0,-999.0,62,0.00,,,-99.99,0.800000,,2013-03-20 00:52:00,
2013-03-19 21:03:00,74.0,61.0,-100.00,NW,312,4.0,-999.0,64,0.00,,,-99.99,0.800000,,2013-03-20 01:03:00,
2013-03-19 21:12:00,74.0,61.0,-100.00,NW,314,5.0,-999.0,64,0.00,,,-99.99,0.800000,,2013-03-20 01:12:00,
2013-03-19 21:23:00,74.0,61.0,-100.00,NW,314,5.0,-999.0,64,0.00,,,-99.99,0.800000,,2013-03-20 01:23:00,
2013-03-19 21:32:00,72.0,61.0,-100.00,WNW,299,4.0,-999.0,68,0.00,,,-99.99,0.800000,,2013-03-20 01:32:00,
2013-03-19 21:42:00,71.0,61.0,-100.00,NW,315,3.0,-999.0,71,0.00,,,-99.99,0.800000,,2013-03-20 01:42:00,
2013-03-19 21:53:00,71.0,61.0,-100.00,NW,315,3.0,-999.0,71,0.00,,,-99.99,0.800000,,2013-03-20 01:53:00,
2013-03-19 22:02:00,71.0,62.0,-100.00,East,91,3.0,-999.0,73,0.00,,,-99.99,0.700000,,2013-03-20 02:02:00,
2013-03-19 22:12:00,73.0,62.0,-100.00,ENE,57,3.0,-999.0,69,0.00,,,-99.99,0.700000,,2013-03-20 02:12:00,
2013-03-19 22:22:00,73.0,62.0,-100.00,ENE,57,3.0,-999.0,69,0.00,,,-99.99,0.700000,,2013-03-20 02:22:00,
2013-03-19 22:32:00,72.0,62.0,-100.00,SE,125,4.0,-999.0,70,0.00,,,-99.99,0.700000,,2013-03-20 02:32:00,
2013-03-19 22:42:00,72.0,62.0,-100.00,ESE,110,3.0,-999.0,70,0.00,,,-99.99,0.700000,,2013-03-20 02:42:00,
2013-03-19 22:53:00,72.0,62.0,-100.00,ESE,110,3.0,-999.0,70,0.00,,,-99.99,0.700000,,2013-03-20 02:53:00,
2013-03-19 23:02:00,70.0,61.0,-100.00,SE,125,1.0,-999.0,73,0.00,,,-99.99,0.600000,,2013-03-20 03:02:00,
2013-03-19 23:12:00,69.0,61.0,-100.00,SSW,205,1.0,-999.0,76,0.00,,,-99.99,0.600000,,2013-03-20 03:12:00,
2013-03-19 23:22:00,69.0,61.0,-100.00,SSW,205,1.0,-999.0,76,0.00,,,-99.99,0.600000,,2013-03-20 03:22:00,
2013-03-19 23:34:00,68.0,62.0,-100.00,North,358,2.0,-999.0,79,0.00,,,-99.99,0.600000,,2013-03-20 03:34:00,
2013-03-19 23:42:00,67.0,61.0,-100.00,NE,53,2.0,-999.0,81,0.00,,,-99.99,0.600000,,2013-03-20 03:42:00,
2013-03-19 23:53:00,67.0,61.0,-100.00,NE,53,2.0,-999.0,81,0.00,,,-99.99,0.600000,,2013-03-20 03:53:00,